createdAt,value
2023-03-20T00:00:04.639Z,6.78
2023-03-20T00:02:32.394Z,4.88
2023-03-20T00:04:58.785Z,5.25
2023-03-20T00:07:25.821Z,5.80
2023-03-20T00:09:52.292Z,4.30
2023-03-20T00:12:22.205Z,6.15
2023-03-20T00:14:48.554Z,5.30
2023-03-20T00:17:20.123Z,5.07
2023-03-20T00:19:46.946Z,4.50
2023-03-20T00:22:13.384Z,4.88
2023-03-20T00:24:39.758Z,4.65
2023-03-20T00:27:06.157Z,5.57
2023-03-20T00:29:34.388Z,4.72
2023-03-20T00:32:00.952Z,6.03
2023-03-20T00:34:29.540Z,4.90
2023-03-20T00:37:00.099Z,4.75
2023-03-20T00:39:29.802Z,4.70
2023-03-20T00:41:57.968Z,5.93
2023-03-20T00:44:26.490Z,5.53
2023-03-20T00:46:57.104Z,4.75
2023-03-20T00:49:26.298Z,5.72
2023-03-20T00:51:52.983Z,7.47
2023-03-20T00:54:19.406Z,3.75
2023-03-20T00:56:51.271Z,4.70
2023-03-20T00:59:19.309Z,4.78
2023-03-20T01:01:46.352Z,4.90
2023-03-20T01:04:17.772Z,4.72
2023-03-20T01:06:44.661Z,4.88
2023-03-20T01:09:11.306Z,6.65
2023-03-20T01:11:38.450Z,5.30
2023-03-20T01:14:06.060Z,5.22
2023-03-20T01:16:32.631Z,5.50
2023-03-20T01:18:59.399Z,5.25
2023-03-20T01:21:25.751Z,4.60
2023-03-20T01:23:52.132Z,5.10
2023-03-20T01:26:31.533Z,4.88
2023-03-20T01:28:57.969Z,6.20
2023-03-20T01:31:24.367Z,5.60
2023-03-20T01:33:50.827Z,5.32
2023-03-20T01:36:18.222Z,4.72
2023-03-20T01:38:44.787Z,4.32
2023-03-20T01:41:13.238Z,5.35
2023-03-20T01:43:40.168Z,5.68
2023-03-20T01:46:09.488Z,5.65
2023-03-20T01:48:55.819Z,5.32
2023-03-20T01:51:26.420Z,5.85
2023-03-20T01:54:10.850Z,4.95
2023-03-20T01:56:39.344Z,4.88
2023-03-20T01:59:10.154Z,5.88
2023-03-20T02:01:37.290Z,6.15
2023-03-20T02:04:04.221Z,5.82
2023-03-20T02:06:30.589Z,6.40
2023-03-20T02:08:57.052Z,6.22
2023-03-20T02:11:24.151Z,6.25
2023-03-20T02:13:53.013Z,6.05
2023-03-20T02:16:20.341Z,6.77
2023-03-20T02:18:48.989Z,6.43
2023-03-20T02:21:34.004Z,6.90
2023-03-20T02:24:18.621Z,6.55
2023-03-20T02:26:48.104Z,5.87
2023-03-20T02:29:33.060Z,7.97
2023-03-20T02:32:11.881Z,7.13
2023-03-20T02:34:47.434Z,6.93
2023-03-20T02:37:52.792Z,8.55
2023-03-20T02:40:25.184Z,6.22
2023-03-20T02:43:14.435Z,6.47
2023-03-20T02:45:47.000Z,6.30
2023-03-20T02:48:25.708Z,6.63
2023-03-20T02:51:11.108Z,6.73
2023-03-20T02:53:43.679Z,6.43
2023-03-20T02:56:17.710Z,8.37
2023-03-20T02:58:58.533Z,5.97
2023-03-20T03:01:30.918Z,5.30
2023-03-20T03:04:00.788Z,5.90
2023-03-20T03:06:29.879Z,7.77
2023-03-20T03:09:02.280Z,7.03
2023-03-20T03:11:29.168Z,5.93
2023-03-20T03:13:56.639Z,7.63
2023-03-20T03:16:26.841Z,6.80
2023-03-20T03:18:59.699Z,6.30
2023-03-20T03:21:29.087Z,5.73
2023-03-20T03:23:56.418Z,6.22
2023-03-20T03:26:25.483Z,6.73
2023-03-20T03:28:57.090Z,7.07
2023-03-20T03:31:24.417Z,6.63
2023-03-20T03:33:53.131Z,8.50
2023-03-20T03:36:19.757Z,8.17
2023-03-20T03:38:51.978Z,8.47
2023-03-20T03:41:20.915Z,7.47
2023-03-20T03:43:53.096Z,7.83
2023-03-20T03:46:30.711Z,7.50
2023-03-20T03:48:57.799Z,6.00
2023-03-20T03:51:26.420Z,7.10
2023-03-20T03:53:56.996Z,6.50
2023-03-20T03:56:26.106Z,7.57
2023-03-20T03:58:53.785Z,6.77
2023-03-20T04:01:20.833Z,6.10
2023-03-20T04:03:52.619Z,6.13
2023-03-20T04:06:19.444Z,6.60
2023-03-20T04:08:46.209Z,7.97
2023-03-20T04:11:16.765Z,7.20
2023-03-20T04:13:43.360Z,6.60
2023-03-20T04:16:12.784Z,6.07
2023-03-20T04:18:39.306Z,4.73
2023-03-20T04:21:06.776Z,6.73
2023-03-20T04:23:33.353Z,6.43
2023-03-20T04:25:59.972Z,7.57
2023-03-20T04:28:33.622Z,6.53
2023-03-20T04:31:00.949Z,6.63
2023-03-20T04:33:27.691Z,6.20
2023-03-20T04:35:54.422Z,7.90
2023-03-20T04:38:21.328Z,6.73
2023-03-20T04:40:47.801Z,6.13
2023-03-20T04:43:15.029Z,6.43
2023-03-20T04:45:41.529Z,6.80
2023-03-20T04:48:08.221Z,6.23
2023-03-20T04:50:35.107Z,9.57
2023-03-20T04:53:01.762Z,6.97
2023-03-20T04:55:28.062Z,6.87
2023-03-20T04:57:54.445Z,7.27
2023-03-20T05:00:21.335Z,6.77
2023-03-20T05:02:48.050Z,7.50
2023-03-20T05:05:14.570Z,6.97
2023-03-20T05:07:41.019Z,6.97
2023-03-20T05:10:07.577Z,5.70
2023-03-20T05:12:33.960Z,7.00
2023-03-20T05:15:00.478Z,7.20
2023-03-20T05:17:26.816Z,6.63
2023-03-20T05:19:53.439Z,7.90
2023-03-20T05:22:19.826Z,6.60
2023-03-20T05:24:46.443Z,7.13
2023-03-20T05:27:13.007Z,5.30
2023-03-20T05:29:39.605Z,7.37
2023-03-20T05:32:06.588Z,6.97
2023-03-20T05:34:32.933Z,7.07
2023-03-20T05:36:59.549Z,5.57
2023-03-20T05:39:26.128Z,5.33
2023-03-20T05:41:52.558Z,5.83
2023-03-20T05:44:19.010Z,5.20
2023-03-20T05:46:48.695Z,5.23
2023-03-20T05:49:15.255Z,6.10
2023-03-20T05:51:41.642Z,6.90
2023-03-20T05:54:08.193Z,6.20
2023-03-20T05:56:34.578Z,5.90
2023-03-20T05:59:01.257Z,5.57
2023-03-20T06:01:27.648Z,8.47
2023-03-20T06:03:54.764Z,8.03
2023-03-20T06:06:21.267Z,9.27
2023-03-20T06:08:47.900Z,9.73
2023-03-20T06:11:14.319Z,8.43
2023-03-20T06:13:40.841Z,8.87
2023-03-20T06:16:07.578Z,8.20
2023-03-20T06:18:33.982Z,7.87
2023-03-20T06:21:02.008Z,9.20
2023-03-20T06:23:28.619Z,8.80
2023-03-20T06:25:54.997Z,7.17
2023-03-20T06:28:21.545Z,9.50
2023-03-20T06:30:51.917Z,9.07
2023-03-20T06:33:18.440Z,7.90
2023-03-20T06:35:46.016Z,8.23
2023-03-20T06:38:12.727Z,8.30
2023-03-20T06:40:39.067Z,9.10
2023-03-20T06:43:05.609Z,9.00
2023-03-20T06:45:32.005Z,8.15
2023-03-20T06:47:58.374Z,10.13
2023-03-20T06:50:24.746Z,8.30
2023-03-20T06:52:52.327Z,7.77
2023-03-20T06:55:18.632Z,7.13
2023-03-20T06:57:45.167Z,6.70
2023-03-20T07:00:11.837Z,7.53
2023-03-20T07:02:38.797Z,7.93
2023-03-20T07:05:05.393Z,7.90
2023-03-20T07:07:31.757Z,7.53
2023-03-20T07:09:58.307Z,7.20
2023-03-20T07:12:28.485Z,8.23
2023-03-20T07:14:55.230Z,8.00
2023-03-20T07:17:22.693Z,6.30
2023-03-20T07:19:49.271Z,7.70
2023-03-20T07:22:20.510Z,7.43
2023-03-20T07:24:47.417Z,7.43
2023-03-20T07:27:13.906Z,7.73
2023-03-20T07:29:40.427Z,7.07
2023-03-20T07:32:06.831Z,6.20
2023-03-20T07:34:33.189Z,9.88
2023-03-20T07:36:59.533Z,7.97
2023-03-20T07:39:26.034Z,6.43
2023-03-20T07:41:52.368Z,8.47
2023-03-20T07:44:19.376Z,5.97
2023-03-20T07:46:48.949Z,7.47
2023-03-20T07:49:18.259Z,7.30
2023-03-20T07:51:45.064Z,6.27
2023-03-20T07:54:11.453Z,5.77
2023-03-20T07:56:37.780Z,7.93
2023-03-20T07:59:04.345Z,7.30
2023-03-20T08:01:30.812Z,6.73
2023-03-20T08:03:57.460Z,7.00
2023-03-20T08:06:23.998Z,6.67
2023-03-20T08:08:52.665Z,6.47
2023-03-20T08:11:19.841Z,6.70
2023-03-20T08:13:46.214Z,7.37
2023-03-20T08:16:12.700Z,6.80
2023-03-20T08:18:39.340Z,6.63
2023-03-20T08:21:06.056Z,6.60
2023-03-20T08:23:32.418Z,5.97
2023-03-20T08:25:58.810Z,7.18
2023-03-20T08:28:44.137Z,7.27
2023-03-20T08:31:13.212Z,6.53
2023-03-20T08:33:39.662Z,6.18
2023-03-20T08:36:06.537Z,5.73
2023-03-20T08:38:32.969Z,5.93
2023-03-20T08:40:59.533Z,5.90
2023-03-20T08:43:25.898Z,5.70
2023-03-20T08:45:52.698Z,6.53
2023-03-20T08:48:19.263Z,5.65
2023-03-20T08:50:45.645Z,5.85
2023-03-20T08:53:12.233Z,5.57
2023-03-20T08:55:38.835Z,6.80
2023-03-20T08:58:05.259Z,6.45
2023-03-20T09:00:32.059Z,6.00
2023-03-20T09:02:58.409Z,5.77
2023-03-20T09:05:24.861Z,5.40
2023-03-20T09:07:51.472Z,5.60
2023-03-20T09:10:17.806Z,7.45
2023-03-20T09:12:44.132Z,6.63
2023-03-20T09:15:11.833Z,6.40
2023-03-20T09:17:38.195Z,6.30
2023-03-20T09:20:05.286Z,6.90
2023-03-20T09:22:32.134Z,7.43
2023-03-20T09:24:58.498Z,6.40
2023-03-20T09:27:24.878Z,9.00
2023-03-20T09:29:51.253Z,6.00
2023-03-20T09:32:17.652Z,6.47
2023-03-20T09:34:44.049Z,6.25
2023-03-20T09:37:10.560Z,6.28
2023-03-20T09:39:36.988Z,6.18
2023-03-20T09:42:09.127Z,7.33
2023-03-20T09:44:35.712Z,5.95
2023-03-20T09:47:21.588Z,6.93
2023-03-20T09:50:12.956Z,6.05
2023-03-20T09:52:46.201Z,4.68
2023-03-20T09:55:17.764Z,4.25
2023-03-20T09:57:47.362Z,5.07
2023-03-20T10:00:16.825Z,6.63
2023-03-20T10:02:53.794Z,6.90
2023-03-20T10:05:20.125Z,5.82
2023-03-20T10:07:46.730Z,14.20
2023-03-20T10:10:15.120Z,8.57
2023-03-20T10:12:41.465Z,7.35
2023-03-20T10:15:13.720Z,5.95
2023-03-20T10:17:46.370Z,6.55
2023-03-20T10:20:31.374Z,6.75
2023-03-20T10:23:18.106Z,5.88
2023-03-20T10:25:51.066Z,5.45
2023-03-20T10:28:21.830Z,6.35
2023-03-20T10:31:05.285Z,6.13
2023-03-20T10:33:43.183Z,6.30
2023-03-20T10:36:23.638Z,11.82
2023-03-20T10:39:00.812Z,9.48
2023-03-20T10:41:32.745Z,6.70
2023-03-20T10:43:59.649Z,7.50
2023-03-20T10:46:32.009Z,5.95
2023-03-20T10:49:13.063Z,9.50
2023-03-20T10:51:46.046Z,10.88
2023-03-20T10:54:22.277Z,6.25
2023-03-20T10:56:49.886Z,6.22
2023-03-20T10:59:29.722Z,7.25
2023-03-20T11:01:56.573Z,5.88
2023-03-20T11:04:23.207Z,6.32
2023-03-20T11:07:00.870Z,6.35
2023-03-20T11:09:29.856Z,5.90
2023-03-20T11:11:57.280Z,6.32
2023-03-20T11:14:24.837Z,6.38
2023-03-20T11:16:55.234Z,6.30
2023-03-20T11:19:22.443Z,6.78
2023-03-20T11:21:48.811Z,7.75
2023-03-20T11:24:41.345Z,6.75
2023-03-20T11:27:09.639Z,6.20
2023-03-20T11:29:36.510Z,6.20
2023-03-20T11:32:07.492Z,7.15
2023-03-20T11:34:37.478Z,6.50
2023-03-20T11:37:10.432Z,6.28
2023-03-20T11:39:38.302Z,6.10
2023-03-20T11:42:21.520Z,7.82
2023-03-20T11:44:56.340Z,7.80
2023-03-20T11:47:24.837Z,7.15
2023-03-20T11:49:58.863Z,6.85
2023-03-20T11:52:39.676Z,7.97
2023-03-20T11:55:12.116Z,6.90
2023-03-20T11:57:40.019Z,7.07
2023-03-20T12:00:15.883Z,7.13
2023-03-20T12:02:43.176Z,7.20
2023-03-20T12:05:18.189Z,7.82
2023-03-20T12:07:45.251Z,7.03
2023-03-20T12:10:12.746Z,8.77
2023-03-20T12:12:41.280Z,8.85
2023-03-20T12:15:07.820Z,6.68
2023-03-20T12:17:34.225Z,6.43
2023-03-20T12:20:19.746Z,9.77
2023-03-20T12:23:09.403Z,6.68
2023-03-20T12:25:50.332Z,7.45
2023-03-20T12:28:28.790Z,6.72
2023-03-20T12:31:04.591Z,8.43
2023-03-20T12:33:42.089Z,6.88
2023-03-20T12:36:18.738Z,6.05
2023-03-20T12:38:45.959Z,6.38
2023-03-20T12:41:19.698Z,6.88
2023-03-20T12:44:24.810Z,6.22
2023-03-20T12:47:03.011Z,5.82
2023-03-20T12:49:46.442Z,2.97
2023-03-20T12:52:28.136Z,3.00
2023-03-20T12:55:27.139Z,3.97
2023-03-20T12:58:12.167Z,3.45
2023-03-20T13:00:53.659Z,4.68
2023-03-20T13:03:28.180Z,5.15
2023-03-20T13:06:13.262Z,4.22
2023-03-20T13:08:42.331Z,2.85
2023-03-20T13:11:11.557Z,5.32
2023-03-20T13:13:56.440Z,4.38
2023-03-20T13:16:45.979Z,4.35
2023-03-20T13:19:19.648Z,4.38
2023-03-20T13:21:46.090Z,4.85
2023-03-20T13:24:15.561Z,4.15
2023-03-20T13:26:48.594Z,3.95
2023-03-20T13:29:24.221Z,7.90
2023-03-20T13:32:06.646Z,3.80
2023-03-20T13:34:32.947Z,4.13
2023-03-20T13:37:25.048Z,3.72
2023-03-20T13:40:06.099Z,2.60
2023-03-20T13:42:51.072Z,3.00
2023-03-20T13:45:21.842Z,3.38
2023-03-20T13:47:48.704Z,3.58
2023-03-20T13:50:30.205Z,3.38
2023-03-20T13:53:00.301Z,2.53
2023-03-20T13:55:26.606Z,3.13
2023-03-20T13:58:11.794Z,3.33
2023-03-20T14:00:41.033Z,2.88
2023-03-20T14:03:14.825Z,2.47
2023-03-20T14:05:42.003Z,2.33
2023-03-20T14:08:20.712Z,3.08
2023-03-20T14:10:47.241Z,2.85
2023-03-20T14:13:15.312Z,2.33
2023-03-20T14:15:45.848Z,3.75
2023-03-20T14:18:22.609Z,3.50
2023-03-20T14:21:12.191Z,3.60
2023-03-20T14:23:47.468Z,2.13
2023-03-20T14:28:44.650Z,2.40
2023-03-20T14:31:12.471Z,3.25
2023-03-20T14:33:42.795Z,2.95
2023-03-20T14:36:17.417Z,2.75
2023-03-20T14:39:16.338Z,3.15
2023-03-20T14:42:02.957Z,2.92
2023-03-20T14:44:39.703Z,2.85
2023-03-20T14:47:17.809Z,3.17
2023-03-20T14:50:07.194Z,2.70
2023-03-20T14:52:51.466Z,2.65
2023-03-20T14:55:17.871Z,2.80
2023-03-20T14:57:56.150Z,2.60
2023-03-20T15:00:24.899Z,3.45
2023-03-20T15:02:52.576Z,3.05
2023-03-20T15:05:26.246Z,4.35
2023-03-20T15:07:52.843Z,3.30
2023-03-20T15:10:19.833Z,4.32
2023-03-20T15:12:46.889Z,4.05
2023-03-20T15:15:26.894Z,3.45
2023-03-20T15:17:53.414Z,2.67
2023-03-20T15:20:29.275Z,3.50
2023-03-20T15:22:58.011Z,3.10
2023-03-20T15:25:28.181Z,3.35
2023-03-20T15:27:55.148Z,4.15
2023-03-20T15:30:22.457Z,4.95
2023-03-20T15:32:49.766Z,4.18
2023-03-20T15:35:21.064Z,3.42
2023-03-20T15:37:48.727Z,3.80
2023-03-20T15:40:23.521Z,4.07
2023-03-20T15:42:56.488Z,4.25
2023-03-20T15:45:32.796Z,4.50
2023-03-20T15:48:00.038Z,2.92
2023-03-20T15:50:26.484Z,3.15
2023-03-20T15:52:53.206Z,3.60
2023-03-20T15:55:20.923Z,3.50
2023-03-20T15:57:50.214Z,4.28
2023-03-20T16:00:22.028Z,3.20
2023-03-20T16:02:49.478Z,4.45
2023-03-20T16:05:16.534Z,2.85
2023-03-20T16:07:42.940Z,3.08
2023-03-20T16:10:36.519Z,3.50
2023-03-20T16:13:04.292Z,4.30
2023-03-20T16:15:31.576Z,3.75
2023-03-20T16:17:59.082Z,5.70
2023-03-20T16:20:27.249Z,4.40
2023-03-20T16:22:55.463Z,6.25
2023-03-20T16:25:21.893Z,5.35
2023-03-20T16:27:49.770Z,6.43
2023-03-20T16:30:18.129Z,5.60
2023-03-20T16:32:47.341Z,5.30
2023-03-20T16:35:18.958Z,5.55
2023-03-20T16:37:58.964Z,5.65
2023-03-20T16:40:32.581Z,6.80
2023-03-20T16:43:27.704Z,5.35
2023-03-20T16:45:55.406Z,5.63
2023-03-20T16:48:42.439Z,5.88
2023-03-20T16:51:22.763Z,6.53
2023-03-20T16:53:50.369Z,4.88
2023-03-20T16:56:18.245Z,5.93
2023-03-20T16:58:45.702Z,5.28
2023-03-20T17:01:17.735Z,5.05
2023-03-20T17:03:44.455Z,5.78
2023-03-20T17:06:15.493Z,6.18
2023-03-20T17:08:42.878Z,5.65
2023-03-20T17:11:11.607Z,5.18
2023-03-20T17:13:38.367Z,5.18
2023-03-20T17:16:04.920Z,5.40
2023-03-20T17:18:31.375Z,5.45
2023-03-20T17:20:57.765Z,5.72
2023-03-20T17:23:24.121Z,4.78
2023-03-20T17:25:50.870Z,5.50
2023-03-20T17:28:20.394Z,5.88
2023-03-20T17:30:47.492Z,6.82
2023-03-20T17:33:14.348Z,5.38
2023-03-20T17:35:40.946Z,5.30
2023-03-20T17:38:10.285Z,5.30
2023-03-20T17:40:36.828Z,5.53
2023-03-20T17:43:03.298Z,5.25
2023-03-20T17:45:29.680Z,6.70
2023-03-20T17:47:57.012Z,6.45
2023-03-20T17:50:25.411Z,6.18
2023-03-20T17:52:51.854Z,6.28
2023-03-20T17:55:18.174Z,6.47
2023-03-20T17:57:44.606Z,7.03
2023-03-20T18:00:28.826Z,6.13
2023-03-20T18:02:55.428Z,5.13
2023-03-20T18:05:22.577Z,8.45
2023-03-20T18:07:48.959Z,5.63
2023-03-20T18:10:26.315Z,4.78
2023-03-20T18:12:53.036Z,5.25
2023-03-20T18:15:19.487Z,4.38
2023-03-20T18:17:48.481Z,5.22
2023-03-20T18:20:28.756Z,3.67
2023-03-20T18:22:55.321Z,4.72
2023-03-20T18:25:22.598Z,4.25
2023-03-20T18:27:49.341Z,5.18
2023-03-20T18:30:17.239Z,4.35
2023-03-20T18:32:43.880Z,3.38
2023-03-20T18:35:10.748Z,4.90
2023-03-20T18:37:38.598Z,6.97
2023-03-20T18:40:07.698Z,4.80
2023-03-20T18:42:34.197Z,5.22
2023-03-20T18:45:00.870Z,4.85
2023-03-20T18:47:27.315Z,5.05
2023-03-20T18:49:53.756Z,5.47
2023-03-20T18:52:20.520Z,5.30
2023-03-20T18:54:46.980Z,5.88
2023-03-20T18:57:14.101Z,6.05
2023-03-20T18:59:42.957Z,6.05
2023-03-20T19:02:09.408Z,7.70
2023-03-20T19:04:35.994Z,6.43
2023-03-20T19:07:04.145Z,6.05
2023-03-20T19:09:30.642Z,5.70
2023-03-20T19:11:57.275Z,6.70
2023-03-20T19:14:25.780Z,5.32
2023-03-20T19:16:52.305Z,5.72
2023-03-20T19:19:18.830Z,5.88
2023-03-20T19:21:45.192Z,5.97
2023-03-20T19:24:11.736Z,5.95
2023-03-20T19:26:38.367Z,4.78
2023-03-20T19:29:10.331Z,5.40
2023-03-20T19:31:37.225Z,5.07
2023-03-20T19:34:06.887Z,5.55
2023-03-20T19:36:34.619Z,6.82
2023-03-20T19:39:01.852Z,5.55
2023-03-20T19:41:28.919Z,6.13
2023-03-20T19:43:56.342Z,7.25
2023-03-20T19:46:41.102Z,6.28
2023-03-20T19:49:24.937Z,6.50
2023-03-20T19:51:56.221Z,7.50
2023-03-20T19:54:23.196Z,5.75
2023-03-20T19:56:49.831Z,5.75
2023-03-20T19:59:17.105Z,8.77
2023-03-20T20:01:45.398Z,7.40
2023-03-20T20:04:12.087Z,7.53
2023-03-20T20:06:39.933Z,7.82
2023-03-20T20:09:08.211Z,6.90
2023-03-20T20:11:36.109Z,8.57
2023-03-20T20:14:13.364Z,8.10
2023-03-20T20:16:42.981Z,7.78
2023-03-20T20:19:09.855Z,6.68
2023-03-20T20:24:24.182Z,8.02
2023-03-20T20:27:03.374Z,7.25
2023-03-20T20:29:40.418Z,5.82
2023-03-20T20:32:06.882Z,7.18
2023-03-20T20:35:30.225Z,7.13
2023-03-20T20:40:06.796Z,7.18
2023-03-20T20:42:33.323Z,5.47
2023-03-20T20:45:00.003Z,5.78
2023-03-20T20:47:26.618Z,6.18
2023-03-20T20:49:53.056Z,6.07
2023-03-20T20:52:20.634Z,6.00
2023-03-20T20:54:47.212Z,6.78
2023-03-20T20:57:14.346Z,5.75
2023-03-20T20:59:41.210Z,7.50
2023-03-20T21:02:11.408Z,5.45
2023-03-20T21:04:41.977Z,5.05
2023-03-20T21:07:12.335Z,4.40
2023-03-20T21:09:40.025Z,11.77
2023-03-20T21:12:07.553Z,10.65
2023-03-20T21:14:34.237Z,10.88
2023-03-20T21:17:01.402Z,8.75
2023-03-20T21:19:32.799Z,5.53
2023-03-20T21:21:59.315Z,6.40
2023-03-20T21:24:32.815Z,6.18
2023-03-20T21:26:59.974Z,6.13
2023-03-20T21:29:26.765Z,7.82
2023-03-20T21:31:53.542Z,6.55
2023-03-20T21:34:20.185Z,6.78
2023-03-20T21:36:49.149Z,7.43
2023-03-20T21:39:16.446Z,6.32
2023-03-20T21:41:43.173Z,4.88
2023-03-20T21:44:16.685Z,5.20
2023-03-20T21:53:13.472Z,4.80
2023-03-20T21:56:03.238Z,5.32
2023-03-20T21:58:36.858Z,6.55
2023-03-20T22:01:21.662Z,5.97
2023-03-20T22:03:54.912Z,7.68
2023-03-20T22:26:22.558Z,7.55
2023-03-20T22:37:37.443Z,6.07
2023-03-20T22:42:49.623Z,6.07
2023-03-20T22:45:08.895Z,6.82
2023-03-20T22:47:36.035Z,6.20
2023-03-20T22:50:02.610Z,6.15
2023-03-20T22:52:45.421Z,7.30
2023-03-20T22:55:14.647Z,7.18
2023-03-20T22:57:47.730Z,13.85
2023-03-20T23:00:22.553Z,8.98
2023-03-20T23:02:49.132Z,7.28
2023-03-20T23:05:15.789Z,6.25
2023-03-20T23:07:42.286Z,7.40
2023-03-20T23:10:09.879Z,7.30
2023-03-20T23:12:37.229Z,7.95
2023-03-20T23:15:04.694Z,6.75
2023-03-20T23:17:31.351Z,7.65
2023-03-20T23:20:10.421Z,6.70
2023-03-20T23:22:38.270Z,6.90
2023-03-20T23:25:13.274Z,7.47
2023-03-20T23:27:44.782Z,7.78
2023-03-20T23:30:11.722Z,6.50
2023-03-20T23:32:39.066Z,7.22
2023-03-20T23:35:06.196Z,6.45
2023-03-20T23:37:32.998Z,8.40
2023-03-20T23:40:02.570Z,7.47
2023-03-20T23:42:30.909Z,6.70
2023-03-20T23:45:04.427Z,6.25
2023-03-20T23:47:44.539Z,6.53
2023-03-20T23:50:20.811Z,7.32
2023-03-20T23:53:01.107Z,6.82
2023-03-20T23:55:30.553Z,6.80
2023-03-20T23:57:57.089Z,7.55
